Terminal Aerodrome Forecast
Issued by NWS

Home | Current Version | Previous Version | Text Only | Print | Product List | Glossary On
Versions: 1 2 3 4 5 6 7 8 9 10 11 12 13 14 15 16
000
FTUS43 KIWX 130500
TAFSBN
TAF
KSBN 130537Z 1306/1406 21010KT P6SM -RA VCTS SCT012 BKN090CB
      TEMPO 1306/1309 5SM RA BKN035
     FM130900 24008KT P6SM BKN015
     FM131500 28008KT P6SM SCT025=

USA.gov is the U.S. government's official web portal to all federal, state and local government web resources and services.